Time;durP1;ratioP1;P1;durP2;ratioP2;P2;SDS_P1;SDS_P2;PMS_P1;PMS_P2;Temp;Humidity;BMP_temperature;BMP_pressure;BME280_temperature;BME280_humidity;BME280_pressure;Samples;Min_cycle;Max_cycle;Signal;HPM_P1;HPM_P2
2024/04/24 00:01:28;;;;;;;2.38;2.28;;;7.50;99.90;;;;;;5433452;26;20256;-76
2024/04/24 00:03:59;;;;;;;2.22;2.13;;;7.50;99.90;;;;;;5429776;26;20287;-75
2024/04/24 00:06:28;;;;;;;2.60;2.50;;;7.50;99.90;;;;;;5433274;26;20755;-76
2024/04/24 00:08:56;;;;;;;2.60;2.50;;;7.50;99.90;;;;;;5434273;26;20255;-75
2024/04/24 00:11:26;;;;;;;2.65;2.55;;;7.50;99.90;;;;;;5438853;26;20287;-79
2024/04/24 00:13:54;;;;;;;2.60;2.50;;;7.40;99.90;;;;;;5437249;26;20305;-77
2024/04/24 00:16:23;;;;;;;2.58;2.47;;;7.40;99.90;;;;;;5433526;26;20278;-74
2024/04/24 00:18:52;;;;;;;2.45;2.35;;;7.40;99.90;;;;;;5440907;26;20294;-79
2024/04/24 00:21:23;;;;;;;2.40;2.30;;;7.30;99.90;;;;;;5442971;26;20251;-76
2024/04/24 00:23:51;;;;;;;2.88;2.67;;;7.30;99.90;;;;;;5442035;26;20266;-75
2024/04/24 00:26:20;;;;;;;3.08;2.88;;;7.20;99.90;;;;;;5437795;26;20289;-77
2024/04/24 00:28:48;;;;;;;3.28;3.00;;;7.20;99.90;;;;;;5432493;26;20259;-76
2024/04/24 00:31:17;;;;;;;3.15;2.95;;;7.20;99.90;;;;;;5433994;26;20235;-75
2024/04/24 00:33:46;;;;;;;4.00;3.80;;;7.20;99.90;;;;;;5429829;26;20250;-75
2024/04/24 00:36:14;;;;;;;3.55;3.28;;;7.10;99.90;;;;;;5429274;26;20286;-77
2024/04/24 00:38:45;;;;;;;3.65;3.35;;;7.10;99.90;;;;;;5429520;26;20881;-78
2024/04/24 00:41:14;;;;;;;3.08;2.88;;;7.10;99.90;;;;;;5436199;26;20250;-76
2024/04/24 00:43:42;;;;;;;3.00;2.80;;;7.10;99.90;;;;;;5437984;26;20286;-78
2024/04/24 00:46:12;;;;;;;3.33;3.13;;;7.10;99.90;;;;;;5437717;26;20277;-76
2024/04/24 00:48:42;;;;;;;2.83;2.72;;;7.10;99.90;;;;;;5446437;26;20251;-74
2024/04/24 00:51:12;;;;;;;3.10;2.88;;;7.10;99.90;;;;;;5433302;26;20870;-75
2024/04/24 00:53:40;;;;;;;2.80;2.70;;;7.10;99.90;;;;;;5434704;26;20256;-75
2024/04/24 00:56:12;;;;;;;2.78;2.58;;;7.00;99.90;;;;;;5429202;26;20259;-76
2024/04/24 00:58:40;;;;;;;2.60;2.50;;;7.00;99.90;;;;;;5442391;26;20264;-76
2024/04/24 01:01:09;;;;;;;2.47;2.38;;;7.00;99.90;;;;;;5433407;26;20713;-75
2024/04/24 01:03:38;;;;;;;2.42;2.33;;;6.90;99.90;;;;;;5432191;26;20256;-78
2024/04/24 01:06:07;;;;;;;3.25;3.05;;;6.90;99.90;;;;;;5431765;26;20266;-77
2024/04/24 01:08:35;;;;;;;2.67;2.55;;;6.90;99.90;;;;;;5434382;26;20792;-75
2024/04/24 01:11:04;;;;;;;2.75;2.60;;;6.90;99.90;;;;;;5432753;26;20632;-77
2024/04/24 01:13:35;;;;;;;3.03;2.83;;;6.90;99.90;;;;;;5429118;26;20256;-76
2024/04/24 01:16:11;;;;;;;2.50;2.40;;;6.90;99.90;;;;;;5422643;26;20257;-74
2024/04/24 01:18:44;;;;;;;2.70;2.60;;;6.80;99.90;;;;;;5436518;26;20248;-76
2024/04/24 01:21:14;;;;;;;2.85;2.65;;;6.80;99.90;;;;;;5429377;26;20298;-75
2024/04/24 01:23:50;;;;;;;2.83;2.72;;;6.80;99.90;;;;;;5429119;26;20251;-75
2024/04/24 01:26:23;;;;;;;2.97;2.88;;;6.80;99.90;;;;;;5428286;26;20302;-76
2024/04/24 01:28:55;;;;;;;2.75;2.65;;;6.80;99.90;;;;;;5438932;26;20249;-75
2024/04/24 01:31:23;;;;;;;2.58;2.47;;;6.80;99.90;;;;;;5436131;26;20250;-75
2024/04/24 01:33:52;;;;;;;2.47;2.38;;;6.80;99.90;;;;;;5424380;26;20832;-76
2024/04/24 01:36:21;;;;;;;2.50;2.40;;;6.70;99.90;;;;;;5432587;26;20293;-75
2024/04/24 01:38:49;;;;;;;2.58;2.47;;;6.70;99.90;;;;;;5434901;26;20251;-75
2024/04/24 01:41:18;;;;;;;2.35;2.25;;;6.60;99.90;;;;;;5432088;26;20703;-76
2024/04/24 01:43:46;;;;;;;2.50;2.40;;;6.60;99.90;;;;;;5441996;26;20290;-75
2024/04/24 01:46:15;;;;;;;1.95;1.85;;;6.50;99.90;;;;;;5432099;26;20281;-75
2024/04/24 01:48:43;;;;;;;2.40;2.30;;;6.50;99.90;;;;;;5429691;26;20291;-77
2024/04/24 01:51:12;;;;;;;2.17;2.08;;;6.40;99.90;;;;;;5439330;26;20247;-77
2024/04/24 01:53:41;;;;;;;2.15;2.05;;;6.40;99.90;;;;;;5431153;26;20307;-78
2024/04/24 01:56:13;;;;;;;2.20;2.10;;;6.40;99.90;;;;;;5430301;26;20298;-77
2024/04/24 01:58:39;;;;;;;2.35;2.25;;;6.40;99.90;;;;;;5427132;26;20252;-77
2024/04/24 02:01:07;;;;;;;2.30;2.20;;;6.40;99.90;;;;;;5428084;26;20254;-77
2024/04/24 02:03:38;;;;;;;2.15;2.05;;;6.40;99.90;;;;;;5427550;26;20322;-76
2024/04/24 02:06:07;;;;;;;2.53;2.42;;;6.40;99.90;;;;;;5426070;26;20620;-78
2024/04/24 02:08:36;;;;;;;2.38;2.28;;;6.40;99.90;;;;;;5419957;26;20306;-77
2024/04/24 02:11:05;;;;;;;2.20;2.10;;;6.30;99.90;;;;;;5437277;26;20250;-78
2024/04/24 02:13:33;;;;;;;2.30;2.20;;;6.30;99.90;;;;;;5428979;26;20283;-78
2024/04/24 02:16:02;;;;;;;2.10;2.00;;;6.20;99.90;;;;;;5423288;26;20260;-78
2024/04/24 02:18:30;;;;;;;2.45;2.35;;;6.20;99.90;;;;;;5436193;26;20247;-76
2024/04/24 02:21:08;;;;;;;2.22;2.13;;;6.10;99.90;;;;;;5430665;26;20302;-79
2024/04/24 02:23:38;;;;;;;2.22;2.13;;;6.10;99.90;;;;;;5419909;26;20302;-78
2024/04/24 02:26:05;;;;;;;2.10;2.00;;;6.10;99.90;;;;;;5427535;26;20247;-78
2024/04/24 02:28:33;;;;;;;2.50;2.40;;;6.10;99.90;;;;;;5428275;26;20246;-78
2024/04/24 02:31:02;;;;;;;2.50;2.40;;;6.00;99.90;;;;;;5426828;26;20586;-78
2024/04/24 02:33:30;;;;;;;2.30;2.20;;;6.10;99.90;;;;;;5434253;26;20874;-74
2024/04/24 02:36:02;;;;;;;2.20;2.10;;;6.10;99.90;;;;;;5430642;26;20250;-77
2024/04/24 02:38:30;;;;;;;2.40;2.30;;;6.20;99.90;;;;;;5426812;26;20259;-78
2024/04/24 02:40:59;;;;;;;2.20;2.10;;;6.20;99.90;;;;;;5423481;26;20251;-76
2024/04/24 02:43:27;;;;;;;2.33;2.22;;;6.30;99.90;;;;;;5434001;26;20301;-76
2024/04/24 02:45:56;;;;;;;2.10;2.00;;;6.40;99.90;;;;;;5438510;26;20611;-77
2024/04/24 02:48:24;;;;;;;2.15;2.08;;;6.40;99.90;;;;;;5398158;26;20252;-77
2024/04/24 02:50:53;;;;;;;2.15;2.05;;;6.40;99.90;;;;;;5425679;26;20852;-78
2024/04/24 02:53:24;;;;;;;1.80;1.80;;;6.50;99.90;;;;;;5431009;26;20255;-77
2024/04/24 02:55:52;;;;;;;1.92;1.92;;;6.50;99.90;;;;;;5424473;26;20306;-77
2024/04/24 02:58:21;;;;;;;2.28;2.17;;;6.40;99.90;;;;;;5435830;26;20583;-77
2024/04/24 03:00:50;;;;;;;2.10;2.00;;;6.40;99.90;;;;;;5428769;26;20247;-77
2024/04/24 03:03:18;;;;;;;2.17;2.08;;;6.40;99.90;;;;;;5432966;26;20252;-76
2024/04/24 03:05:47;;;;;;;2.20;2.10;;;6.40;99.90;;;;;;5435172;26;20756;-78
2024/04/24 03:08:15;;;;;;;2.33;2.22;;;6.40;99.90;;;;;;5430771;26;20285;-76
2024/04/24 03:10:47;;;;;;;1.92;1.90;;;6.40;99.90;;;;;;5426500;26;20262;-75
2024/04/24 03:13:15;;;;;;;2.67;2.58;;;6.40;99.90;;;;;;5428472;26;20298;-73
2024/04/24 03:15:41;;;;;;;2.58;2.47;;;6.40;99.90;;;;;;5432002;26;20293;-76
2024/04/24 03:18:10;;;;;;;2.40;2.30;;;6.40;99.90;;;;;;5444524;26;20298;-74
2024/04/24 03:20:38;;;;;;;2.40;2.30;;;6.50;99.90;;;;;;5425410;26;20263;-77
2024/04/24 03:23:07;;;;;;;2.40;2.30;;;6.50;99.90;;;;;;5431928;26;20258;-77
2024/04/24 03:25:36;;;;;;;2.25;2.15;;;6.50;99.90;;;;;;5430685;26;20348;-77
2024/04/24 03:28:07;;;;;;;2.20;2.10;;;6.50;99.90;;;;;;5438216;26;20248;-77
2024/04/24 03:30:36;;;;;;;3.17;3.05;;;6.40;99.90;;;;;;5423008;26;20252;-76
2024/04/24 03:33:04;;;;;;;2.45;2.35;;;6.40;99.90;;;;;;5431117;26;20360;-76
2024/04/24 03:35:33;;;;;;;2.70;2.60;;;6.40;99.90;;;;;;5430993;26;20301;-77
2024/04/24 03:38:01;;;;;;;2.42;2.33;;;6.40;99.90;;;;;;5443669;26;20278;-76
2024/04/24 03:40:30;;;;;;;2.60;2.50;;;6.50;99.90;;;;;;5433658;26;20252;-78
2024/04/24 03:42:58;;;;;;;2.70;2.60;;;6.50;99.90;;;;;;5426196;26;20247;-76
2024/04/24 03:45:29;;;;;;;2.50;2.40;;;6.60;99.90;;;;;;5427127;26;20762;-77
2024/04/24 03:47:58;;;;;;;2.30;2.20;;;6.60;99.90;;;;;;5430773;26;20346;-77
2024/04/24 03:50:26;;;;;;;2.20;2.10;;;6.60;99.90;;;;;;5437676;26;20251;-77
2024/04/24 03:52:55;;;;;;;2.60;2.50;;;6.70;99.90;;;;;;5436233;26;20256;-77
2024/04/24 03:55:24;;;;;;;2.45;2.35;;;6.70;99.90;;;;;;5428112;26;20252;-77
2024/04/24 03:57:52;;;;;;;1.90;1.85;;;6.70;99.90;;;;;;5432953;26;20241;-77
2024/04/24 04:00:21;;;;;;;2.05;1.95;;;6.70;99.90;;;;;;5428989;26;20248;-76
2024/04/24 04:02:52;;;;;;;2.42;2.33;;;6.70;99.90;;;;;;5425958;26;20251;-77
2024/04/24 04:05:20;;;;;;;2.55;2.45;;;6.70;99.90;;;;;;5440128;26;20656;-77
2024/04/24 04:07:49;;;;;;;2.40;2.30;;;6.70;99.90;;;;;;5438186;26;20291;-76
2024/04/24 04:10:17;;;;;;;2.03;1.92;;;6.70;99.90;;;;;;5427723;26;20251;-77
2024/04/24 04:12:44;;;;;;;2.42;2.33;;;6.70;99.90;;;;;;5427999;26;20241;-77
2024/04/24 04:15:13;;;;;;;2.35;2.17;;;6.80;99.90;;;;;;5432175;26;20656;-77
2024/04/24 04:17:42;;;;;;;2.30;2.20;;;6.80;99.90;;;;;;5437601;26;20254;-77
2024/04/24 04:20:13;;;;;;;2.42;2.28;;;6.80;99.90;;;;;;5432046;26;20428;-77
2024/04/24 04:22:43;;;;;;;2.50;2.40;;;6.80;99.90;;;;;;5428633;26;20247;-78
2024/04/24 04:25:11;;;;;;;2.40;2.30;;;6.80;99.90;;;;;;5444194;26;20258;-77
2024/04/24 04:27:41;;;;;;;2.50;2.40;;;6.90;99.90;;;;;;5436907;26;20262;-77
2024/04/24 04:30:11;;;;;;;2.40;2.30;;;6.90;99.90;;;;;;5438837;26;20294;-77
2024/04/24 04:32:40;;;;;;;2.63;2.53;;;7.00;99.90;;;;;;5428727;26;20252;-73
2024/04/24 04:35:08;;;;;;;2.33;2.15;;;7.00;99.90;;;;;;5426575;26;20825;-78
2024/04/24 04:37:40;;;;;;;2.08;2.00;;;7.10;99.90;;;;;;5422334;26;20302;-77
2024/04/24 04:40:10;;;;;;;2.20;2.10;;;7.10;99.90;;;;;;5426032;26;20696;-76
2024/04/24 04:42:38;;;;;;;2.10;2.00;;;7.10;99.90;;;;;;5417187;26;20279;-77
2024/04/24 04:45:08;;;;;;;2.50;2.40;;;7.10;99.90;;;;;;5405180;26;20264;-77
2024/04/24 04:47:36;;;;;;;2.28;2.17;;;7.10;99.90;;;;;;5399272;26;20257;-77
2024/04/24 04:50:05;;;;;;;2.30;2.20;;;7.10;99.90;;;;;;5403242;26;20297;-76
2024/04/24 04:52:34;;;;;;;2.60;2.50;;;7.10;99.90;;;;;;5432455;26;20618;-77
2024/04/24 04:55:05;;;;;;;2.40;2.30;;;7.10;99.90;;;;;;5427339;26;20302;-76
2024/04/24 04:57:34;;;;;;;2.75;2.65;;;7.10;99.90;;;;;;5426448;26;20240;-76
2024/04/24 05:00:02;;;;;;;2.30;2.20;;;7.10;99.90;;;;;;5424765;26;20640;-76
2024/04/24 05:02:33;;;;;;;2.83;2.63;;;7.30;99.90;;;;;;5421293;26;20294;-76
2024/04/24 05:05:01;;;;;;;2.70;2.50;;;7.30;99.90;;;;;;5429054;26;20260;-77
2024/04/24 05:07:30;;;;;;;2.42;2.17;;;7.40;99.90;;;;;;5426609;26;20941;-76
2024/04/24 05:09:58;;;;;;;2.60;2.50;;;7.50;99.90;;;;;;5414475;26;20263;-77
2024/04/24 05:12:30;;;;;;;1.98;1.88;;;7.60;99.90;;;;;;5423139;26;20239;-76
2024/04/24 05:14:58;;;;;;;2.80;2.70;;;7.70;99.90;;;;;;5430374;26;20256;-77
2024/04/24 05:17:27;;;;;;;2.38;2.28;;;7.70;99.90;;;;;;5427473;26;20294;-77
2024/04/24 05:19:55;;;;;;;2.35;2.25;;;7.70;99.90;;;;;;5427817;26;20263;-76
2024/04/24 05:22:22;;;;;;;2.50;2.40;;;7.70;99.90;;;;;;5426381;26;20302;-76
2024/04/24 05:24:51;;;;;;;2.70;2.60;;;7.70;99.90;;;;;;5424473;26;20260;-77
2024/04/24 05:30:08;;;;;;;2.83;2.72;;;7.80;99.90;;;;;;5426608;26;20358;-76
2024/04/24 05:32:36;;;;;;;2.30;2.20;;;7.90;99.90;;;;;;5418020;26;20252;-77
2024/04/24 05:35:05;;;;;;;2.70;2.53;;;8.00;99.90;;;;;;5423630;26;20609;-77
2024/04/24 05:37:34;;;;;;;2.50;2.40;;;8.50;99.90;;;;;;5422440;26;20264;-76
2024/04/24 05:40:02;;;;;;;2.75;2.65;;;8.80;99.90;;;;;;5427920;26;20661;-77
2024/04/24 05:42:31;;;;;;;2.50;2.40;;;9.10;99.90;;;;;;5422895;26;20236;-77
2024/04/24 05:44:59;;;;;;;2.85;2.75;;;9.30;99.90;;;;;;5429965;26;20294;-77
2024/04/24 05:47:31;;;;;;;3.28;2.28;;;9.60;99.90;;;;;;5424188;26;20256;-77
2024/04/24 05:49:59;;;;;;;2.65;2.45;;;9.80;99.90;;;;;;5422212;26;20249;-76
2024/04/24 05:52:28;;;;;;;2.50;2.40;;;9.90;99.90;;;;;;5407977;26;20292;-76
2024/04/24 05:54:57;;;;;;;2.38;2.28;;;10.10;99.90;;;;;;5415390;26;20256;-77
2024/04/24 05:57:25;;;;;;;2.00;1.90;;;10.40;99.90;;;;;;5423262;26;20603;-76
2024/04/24 05:59:54;;;;;;;2.28;2.17;;;10.50;99.90;;;;;;5428400;26;20271;-76
2024/04/24 06:02:22;;;;;;;2.13;2.03;;;10.70;99.90;;;;;;5435898;26;20264;-77
2024/04/24 06:04:54;;;;;;;2.67;2.47;;;10.90;99.90;;;;;;5423870;26;20250;-77
2024/04/24 06:07:22;;;;;;;1.95;1.85;;;10.90;99.90;;;;;;5424200;26;20296;-76
2024/04/24 06:09:51;;;;;;;2.15;1.83;;;10.80;99.90;;;;;;5431228;26;20313;-77
2024/04/24 06:12:20;;;;;;;2.10;2.00;;;10.90;99.90;;;;;;5421384;26;20894;-77
2024/04/24 06:14:49;;;;;;;1.92;1.77;;;11.10;99.90;;;;;;5425799;26;20253;-78
2024/04/24 06:17:17;;;;;;;2.15;2.05;;;11.20;99.90;;;;;;5416903;26;20259;-78
2024/04/24 06:19:46;;;;;;;1.90;1.80;;;11.30;99.90;;;;;;5427069;26;20705;-77
2024/04/24 06:22:17;;;;;;;2.05;1.95;;;11.40;99.90;;;;;;5437827;26;20247;-76
2024/04/24 06:24:46;;;;;;;1.88;1.77;;;11.50;99.90;;;;;;5423343;26;21190;-77
2024/04/24 06:27:14;;;;;;;2.00;1.90;;;11.60;99.90;;;;;;5418735;26;20260;-78
2024/04/24 06:29:43;;;;;;;1.92;1.83;;;11.70;99.90;;;;;;5434235;26;20813;-76
2024/04/24 06:32:11;;;;;;;2.13;2.03;;;11.60;99.90;;;;;;5441063;26;20358;-77
2024/04/24 06:34:41;;;;;;;2.25;2.15;;;11.40;99.90;;;;;;5430798;26;20256;-77
2024/04/24 06:37:10;;;;;;;1.92;1.83;;;11.40;99.90;;;;;;5428914;26;20274;-76
2024/04/24 06:39:41;;;;;;;1.77;1.67;;;11.50;99.90;;;;;;5424984;26;20298;-77
2024/04/24 06:42:10;;;;;;;1.90;1.80;;;11.60;99.90;;;;;;5426664;26;20255;-76
2024/04/24 06:44:38;;;;;;;2.00;1.90;;;11.40;99.90;;;;;;5426995;26;20294;-75
2024/04/24 06:47:08;;;;;;;2.10;2.00;;;10.90;99.90;;;;;;5438653;26;20255;-78
2024/04/24 06:49:37;;;;;;;2.13;2.03;;;10.60;99.90;;;;;;5418880;26;20256;-78
2024/04/24 06:52:07;;;;;;;1.80;1.70;;;10.30;99.90;;;;;;5419544;26;20286;-78
2024/04/24 06:54:35;;;;;;;1.95;1.85;;;10.10;99.90;;;;;;5419935;26;20303;-78
2024/04/24 06:57:06;;;;;;;2.00;1.90;;;10.10;99.90;;;;;;5426437;26;20247;-76
2024/04/24 06:59:35;;;;;;;2.42;2.15;;;10.10;99.90;;;;;;5421287;26;20307;-78
2024/04/24 07:02:04;;;;;;;1.88;1.77;;;10.40;99.90;;;;;;5426265;26;20289;-76
2024/04/24 07:04:32;;;;;;;2.00;1.83;;;10.80;99.90;;;;;;5416131;26;20252;-78
2024/04/24 07:07:01;;;;;;;2.08;1.98;;;11.10;99.90;;;;;;5425807;26;20252;-77
2024/04/24 07:09:30;;;;;;;2.25;2.05;;;11.30;99.90;;;;;;5416237;26;20354;-77
2024/04/24 07:11:58;;;;;;;1.85;1.75;;;11.50;99.90;;;;;;5426634;26;20302;-75
2024/04/24 07:14:29;;;;;;;2.22;2.13;;;11.90;99.90;;;;;;5418409;26;20251;-77
2024/04/24 07:16:58;;;;;;;1.90;1.80;;;12.10;99.90;;;;;;5421625;26;20743;-77
2024/04/24 07:19:27;;;;;;;1.92;1.83;;;12.00;99.90;;;;;;5412572;26;20260;-77
2024/04/24 07:21:55;;;;;;;1.70;1.60;;;11.80;99.90;;;;;;5427283;26;20307;-77
2024/04/24 07:24:24;;;;;;;2.00;1.90;;;11.50;99.90;;;;;;5421194;26;20301;-77
2024/04/24 07:26:52;;;;;;;1.90;1.80;;;11.40;99.90;;;;;;5423802;26;20863;-77
2024/04/24 07:29:21;;;;;;;1.90;1.80;;;11.40;99.90;;;;;;5422568;26;20302;-77
2024/04/24 07:31:52;;;;;;;1.90;1.58;;;11.40;99.90;;;;;;5425340;26;20876;-77
2024/04/24 07:34:20;;;;;;;1.85;1.75;;;12.10;99.90;;;;;;5427739;26;22271;-78
2024/04/24 07:36:49;;;;;;;1.88;1.52;;;12.80;99.90;;;;;;5427537;26;20293;-77
2024/04/24 07:39:17;;;;;;;1.63;1.52;;;13.20;99.90;;;;;;5426233;26;21044;-77
2024/04/24 07:41:46;;;;;;;2.33;1.70;;;13.40;99.90;;;;;;5422518;26;20287;-77
2024/04/24 07:44:14;;;;;;;2.45;2.25;;;13.80;99.90;;;;;;5424724;26;20264;-78
2024/04/24 07:46:43;;;;;;;1.90;1.80;;;14.00;99.90;;;;;;5424781;26;20745;-77
2024/04/24 07:49:14;;;;;;;1.83;1.73;;;14.20;99.90;;;;;;5420338;26;20263;-77
2024/04/24 07:51:43;;;;;;;1.88;1.77;;;14.10;99.90;;;;;;5425449;26;20294;-77
2024/04/24 07:54:11;;;;;;;1.73;1.65;;;14.00;99.90;;;;;;5423583;26;20757;-77
2024/04/24 07:56:40;;;;;;;1.55;1.55;;;14.00;99.90;;;;;;5429268;26;20243;-77
2024/04/24 07:59:08;;;;;;;1.80;1.70;;;14.10;99.90;;;;;;5426255;26;20259;-77
2024/04/24 08:01:37;;;;;;;1.63;1.52;;;14.40;99.90;;;;;;5426531;26;20310;-78
2024/04/24 08:04:06;;;;;;;1.42;1.42;;;14.50;99.90;;;;;;5421574;26;20297;-79
2024/04/24 08:06:37;;;;;;;1.85;1.75;;;14.50;99.90;;;;;;5428631;26;20256;-78
2024/04/24 08:09:05;;;;;;;1.70;1.60;;;13.90;99.90;;;;;;5432686;26;20679;-78
2024/04/24 08:11:34;;;;;;;1.90;1.80;;;13.40;99.90;;;;;;5423933;26;20239;-78
2024/04/24 08:14:03;;;;;;;1.80;1.70;;;13.00;99.90;;;;;;5437059;26;20384;-78
2024/04/24 08:16:31;;;;;;;1.77;1.67;;;12.70;99.90;;;;;;5430835;26;20255;-77
2024/04/24 08:19:00;;;;;;;1.50;1.50;;;12.50;99.90;;;;;;5422547;26;20335;-79
2024/04/24 08:21:28;;;;;;;1.80;1.70;;;12.40;99.90;;;;;;5433825;26;20246;-78
2024/04/24 08:24:00;;;;;;;1.80;1.70;;;12.70;99.90;;;;;;5419404;26;20306;-78
2024/04/24 08:26:28;;;;;;;1.75;1.65;;;12.90;99.90;;;;;;5433998;26;20235;-78
2024/04/24 08:28:57;;;;;;;1.73;1.63;;;12.90;99.90;;;;;;5433729;26;20270;-78
2024/04/24 08:31:25;;;;;;;1.70;1.60;;;13.10;99.90;;;;;;5430473;26;20290;-79
2024/04/24 08:33:55;;;;;;;1.90;1.80;;;13.20;99.90;;;;;;5430309;26;21283;-79
2024/04/24 08:36:23;;;;;;;1.90;1.80;;;13.40;99.90;;;;;;5438240;26;20255;-79
2024/04/24 08:38:53;;;;;;;1.60;1.55;;;13.80;99.90;;;;;;5427345;26;20297;-76
2024/04/24 08:41:25;;;;;;;1.85;1.75;;;14.00;99.90;;;;;;5436791;26;21068;-78
2024/04/24 08:43:54;;;;;;;1.73;1.63;;;14.20;98.80;;;;;;5428502;26;20299;-79
2024/04/24 08:46:23;;;;;;;2.00;1.90;;;14.60;99.20;;;;;;5425754;26;20247;-78
2024/04/24 08:48:52;;;;;;;1.90;1.80;;;14.60;98.00;;;;;;5426252;26;20348;-80
2024/04/24 08:51:21;;;;;;;1.83;1.73;;;14.30;95.80;;;;;;5426566;26;20264;-80
2024/04/24 08:53:56;;;;;;;1.80;1.70;;;14.30;98.10;;;;;;5424363;26;20298;-79
2024/04/24 08:56:29;;;;;;;1.60;1.50;;;14.40;97.40;;;;;;5421359;26;20290;-77
2024/04/24 08:59:02;;;;;;;1.75;1.65;;;14.40;96.40;;;;;;5405573;26;20284;-77
2024/04/24 09:01:37;;;;;;;1.85;1.75;;;15.00;95.80;;;;;;5430768;26;20255;-79
2024/04/24 09:04:08;;;;;;;1.70;1.60;;;15.70;97.30;;;;;;5425836;26;20256;-77
2024/04/24 09:06:37;;;;;;;1.60;1.60;;;16.10;94.30;;;;;;5418514;26;20339;-78
2024/04/24 09:09:06;;;;;;;1.80;1.70;;;16.20;93.40;;;;;;5435356;26;20334;-77
2024/04/24 09:11:37;;;;;;;1.70;1.60;;;16.10;92.30;;;;;;5422997;26;20282;-79
2024/04/24 09:14:06;;;;;;;1.70;1.60;;;16.10;92.60;;;;;;5432226;26;20248;-77
2024/04/24 09:16:37;;;;;;;1.80;1.70;;;15.80;91.90;;;;;;5415673;26;20353;-78
2024/04/24 09:19:07;;;;;;;1.60;1.50;;;16.10;91.70;;;;;;5425364;26;20735;-76
2024/04/24 09:21:35;;;;;;;1.40;1.40;;;16.00;91.30;;;;;;5417954;26;20298;-74
2024/04/24 09:24:04;;;;;;;1.70;1.60;;;16.10;91.90;;;;;;5417922;26;20318;-75
2024/04/24 09:26:33;;;;;;;1.58;1.55;;;16.10;90.60;;;;;;5426333;26;20236;-75
2024/04/24 09:29:04;;;;;;;1.88;1.77;;;16.00;88.80;;;;;;5427559;26;20251;-76
2024/04/24 09:31:34;;;;;;;1.40;1.40;;;15.90;86.20;;;;;;5423748;26;20259;-76
2024/04/24 09:34:03;;;;;;;1.80;1.70;;;15.70;85.30;;;;;;5425825;26;22048;-75
2024/04/24 09:36:32;;;;;;;1.45;1.40;;;15.60;88.80;;;;;;5424934;26;20255;-77
2024/04/24 09:39:01;;;;;;;4.63;1.58;;;15.80;91.00;;;;;;5416922;26;20327;-76
2024/04/24 09:41:30;;;;;;;1.50;1.50;;;15.80;90.30;;;;;;5418783;26;20285;-77
2024/04/24 09:43:58;;;;;;;1.58;1.50;;;15.60;89.40;;;;;;5425168;26;20788;-75
2024/04/24 09:46:30;;;;;;;1.85;1.75;;;15.60;90.90;;;;;;5427626;26;20251;-76
2024/04/24 09:48:59;;;;;;;1.75;1.70;;;15.50;89.50;;;;;;5422666;26;20362;-76
2024/04/24 09:51:28;;;;;;;1.67;1.58;;;15.30;89.50;;;;;;5427484;26;20293;-75
2024/04/24 09:53:56;;;;;;;1.77;1.67;;;15.30;90.00;;;;;;5418794;26;20251;-75
2024/04/24 09:56:27;;;;;;;1.88;1.77;;;15.30;90.70;;;;;;5433296;26;20571;-75
2024/04/24 09:58:57;;;;;;;3.05;1.40;;;15.30;90.30;;;;;;5431513;26;20293;-76
2024/04/24 10:01:32;;;;;;;1.45;1.35;;;15.10;90.70;;;;;;5427971;26;20254;-76
2024/04/24 10:04:03;;;;;;;2.78;1.70;;;15.10;90.70;;;;;;5437383;26;20254;-76
2024/04/24 10:06:36;;;;;;;1.25;1.25;;;15.20;88.40;;;;;;5436643;26;20258;-76
2024/04/24 10:09:07;;;;;;;1.20;1.20;;;15.00;87.20;;;;;;5426753;26;20339;-77
2024/04/24 10:11:40;;;;;;;1.50;1.40;;;14.80;88.50;;;;;;5423239;26;20324;-75
2024/04/24 10:14:11;;;;;;;2.20;1.50;;;14.70;89.50;;;;;;5429658;26;20603;-76
2024/04/24 10:16:42;;;;;;;1.65;1.58;;;14.60;88.90;;;;;;5425814;26;20262;-75
2024/04/24 10:19:12;;;;;;;1.42;1.42;;;14.50;89.40;;;;;;5417646;26;20297;-77
2024/04/24 10:21:40;;;;;;;1.75;1.65;;;14.40;88.10;;;;;;5424728;26;20255;-76
2024/04/24 10:24:09;;;;;;;1.10;1.10;;;14.30;86.40;;;;;;5431847;26;20251;-75
2024/04/24 10:26:39;;;;;;;1.58;1.48;;;14.30;87.90;;;;;;5429866;26;20289;-77
2024/04/24 10:29:09;;;;;;;1.30;1.30;;;14.40;87.50;;;;;;5425842;26;20263;-74
2024/04/24 10:31:38;;;;;;;1.60;1.50;;;14.40;87.00;;;;;;5422610;26;20255;-76
2024/04/24 10:34:09;;;;;;;1.63;1.52;;;14.40;86.90;;;;;;5427716;26;21215;-76
2024/04/24 10:36:35;;;;;;;1.40;1.40;;;14.50;88.50;;;;;;5430913;26;20259;-76
2024/04/24 10:39:07;;;;;;;1.60;1.50;;;14.70;87.50;;;;;;5426125;26;20358;-75
2024/04/24 10:41:37;;;;;;;1.25;1.25;;;14.70;85.90;;;;;;5421895;26;20262;-76
2024/04/24 10:44:09;;;;;;;1.48;1.38;;;14.70;83.90;;;;;;5430065;26;20258;-74
2024/04/24 10:46:39;;;;;;;1.40;1.40;;;14.70;82.90;;;;;;5423699;26;20338;-75
2024/04/24 10:49:11;;;;;;;1.42;1.42;;;14.70;84.50;;;;;;5430043;26;20405;-76
2024/04/24 10:51:48;;;;;;;1.50;1.40;;;14.80;86.20;;;;;;5421248;26;20297;-76
2024/04/24 10:54:17;;;;;;;2.10;1.48;;;14.80;82.40;;;;;;5426578;26;20285;-75
2024/04/24 10:56:47;;;;;;;1.70;1.60;;;14.80;85.40;;;;;;5430962;26;20316;-74
2024/04/24 10:59:16;;;;;;;1.20;1.13;;;14.80;82.60;;;;;;5418853;26;20345;-77
2024/04/24 11:01:45;;;;;;;1.33;1.33;;;14.80;84.60;;;;;;5421330;26;20354;-76
2024/04/24 11:04:17;;;;;;;1.58;1.38;;;14.90;84.90;;;;;;5423917;26;20244;-76
2024/04/24 11:06:47;;;;;;;1.50;1.40;;;14.90;85.70;;;;;;5432334;26;20765;-77
2024/04/24 11:09:13;;;;;;;1.30;1.30;;;14.90;85.50;;;;;;5424950;26;20255;-76
2024/04/24 11:11:42;;;;;;;1.55;1.45;;;15.00;85.40;;;;;;5430369;26;20281;-75
2024/04/24 11:14:11;;;;;;;1.45;1.45;;;15.00;83.30;;;;;;5435592;26;21039;-76
2024/04/24 11:16:40;;;;;;;1.05;1.05;;;15.10;84.50;;;;;;5425756;26;21414;-77
2024/04/24 11:19:08;;;;;;;1.48;1.40;;;15.10;86.30;;;;;;5417449;26;20251;-76
2024/04/24 11:21:40;;;;;;;1.83;1.65;;;15.10;85.30;;;;;;5442429;26;20332;-76
2024/04/24 11:24:08;;;;;;;1.80;1.30;;;15.20;85.10;;;;;;5431336;26;20262;-77
2024/04/24 11:26:38;;;;;;;1.30;1.20;;;15.20;84.60;;;;;;5428995;26;20243;-76
2024/04/24 11:29:07;;;;;;;1.63;1.52;;;15.40;86.60;;;;;;5428216;26;20303;-76
2024/04/24 11:31:39;;;;;;;2.00;1.90;;;15.50;85.30;;;;;;5431180;26;20914;-77
2024/04/24 11:34:08;;;;;;;1.40;1.40;;;15.40;80.50;;;;;;5432819;26;20255;-78
2024/04/24 11:36:40;;;;;;;1.40;1.30;;;15.30;80.60;;;;;;5436793;26;20259;-76
2024/04/24 11:39:11;;;;;;;1.23;1.23;;;15.30;80.50;;;;;;5432153;26;20243;-76
2024/04/24 11:41:40;;;;;;;1.92;1.55;;;15.40;82.20;;;;;;5427800;26;21292;-76
2024/04/24 11:44:09;;;;;;;1.58;1.48;;;15.60;80.50;;;;;;5423245;26;20255;-77
2024/04/24 11:46:38;;;;;;;1.48;1.42;;;15.50;79.80;;;;;;5437441;26;20299;-75
2024/04/24 11:49:08;;;;;;;4.53;1.33;;;15.60;79.60;;;;;;5427040;26;20263;-77
2024/04/24 11:51:41;;;;;;;1.27;1.27;;;15.60;76.90;;;;;;5429105;26;20252;-77
2024/04/24 11:54:10;;;;;;;1.88;1.40;;;15.60;78.40;;;;;;5420126;26;20298;-73
2024/04/24 11:56:40;;;;;;;1.40;1.40;;;15.70;76.50;;;;;;5430211;26;20735;-76
2024/04/24 11:59:09;;;;;;;1.17;1.17;;;15.70;77.90;;;;;;5428200;26;20370;-74
2024/04/24 12:01:38;;;;;;;1.50;1.40;;;15.80;79.20;;;;;;5436771;26;20267;-75
2024/04/24 12:04:07;;;;;;;1.38;1.38;;;15.90;77.80;;;;;;5423299;26;20304;-74
2024/04/24 12:06:45;;;;;;;1.63;1.52;;;15.80;79.70;;;;;;5435408;26;20255;-75
2024/04/24 12:09:14;;;;;;;1.50;1.40;;;15.60;74.00;;;;;;5427610;26;20252;-76
2024/04/24 12:11:44;;;;;;;1.50;1.40;;;15.50;76.90;;;;;;5431202;26;20300;-75
2024/04/24 12:14:15;;;;;;;1.50;1.50;;;15.50;77.20;;;;;;5432058;26;20954;-76
2024/04/24 12:16:43;;;;;;;1.35;1.35;;;15.50;76.10;;;;;;5423492;26;20293;-76
2024/04/24 12:19:13;;;;;;;1.42;1.33;;;15.50;73.90;;;;;;5429547;26;20313;-76
2024/04/24 12:21:44;;;;;;;1.70;1.50;;;15.60;76.90;;;;;;5436897;26;20254;-76
2024/04/24 12:24:13;;;;;;;1.38;1.38;;;15.70;74.50;;;;;;5430178;26;20319;-75
2024/04/24 12:26:42;;;;;;;1.45;1.35;;;15.80;75.30;;;;;;5429279;26;20243;-76
2024/04/24 12:29:10;;;;;;;1.33;1.33;;;15.90;75.50;;;;;;5427538;26;20301;-77
2024/04/24 12:31:40;;;;;;;1.05;1.05;;;16.10;76.00;;;;;;5431557;26;20260;-77
2024/04/24 12:34:09;;;;;;;1.40;1.40;;;16.40;77.00;;;;;;5426743;26;20742;-77
2024/04/24 12:36:38;;;;;;;1.60;1.50;;;16.60;77.50;;;;;;5429563;26;20264;-75
2024/04/24 12:39:10;;;;;;;1.38;1.38;;;16.80;76.40;;;;;;5427412;26;20294;-76
2024/04/24 12:41:38;;;;;;;1.10;1.10;;;17.10;76.70;;;;;;5434293;26;21109;-76
2024/04/24 12:44:08;;;;;;;1.30;1.10;;;17.20;75.70;;;;;;5417098;26;20256;-75
2024/04/24 12:46:36;;;;;;;1.33;1.33;;;17.20;76.80;;;;;;5417259;26;20279;-76
2024/04/24 12:49:05;;;;;;;1.40;1.30;;;17.40;78.80;;;;;;5424681;26;20793;-76
2024/04/24 12:51:35;;;;;;;1.73;1.38;;;17.50;77.60;;;;;;5427699;26;20253;-75
2024/04/24 12:54:03;;;;;;;1.50;1.30;;;17.60;77.30;;;;;;5416040;26;23625;-77
2024/04/24 12:56:35;;;;;;;1.20;1.20;;;17.60;75.80;;;;;;5415270;26;20286;-77
2024/04/24 12:59:03;;;;;;;1.40;1.35;;;17.60;75.30;;;;;;5429580;26;20266;-77
2024/04/24 13:01:32;;;;;;;1.42;1.30;;;17.60;71.60;;;;;;5432900;26;20251;-75
2024/04/24 13:04:00;;;;;;;1.67;1.58;;;17.20;73.20;;;;;;5424199;26;20778;-77